Time;durP1;ratioP1;P1;durP2;ratioP2;P2;SDS_P1;SDS_P2;PMS_P1;PMS_P2;Temp;Humidity;BMP_temperature;BMP_pressure;BME280_temperature;BME280_humidity;BME280_pressure;Samples;Min_cycle;Max_cycle;Signal;HPM_P1;HPM_P2
2022/07/17 00:01:13;;;;;;;0.40;0.40;;;14.10;99.70;;;;;;4980558;28;20498;-78
2022/07/17 00:03:40;;;;;;;2.40;0.60;;;14.10;99.90;;;;;;4972175;28;20726;-78
2022/07/17 00:06:10;;;;;;;0.85;0.43;;;14.10;99.80;;;;;;4990587;28;20434;-80
2022/07/17 00:08:37;;;;;;;0.20;0.20;;;14.00;99.80;;;;;;4979754;28;20997;-78
2022/07/17 00:11:04;;;;;;;0.55;0.40;;;14.00;99.90;;;;;;4992047;28;20447;-78
2022/07/17 00:13:30;;;;;;;0.32;0.32;;;13.90;99.90;;;;;;4985185;28;20519;-78
2022/07/17 00:15:58;;;;;;;0.40;0.40;;;13.70;99.90;;;;;;4986055;28;20781;-78
2022/07/17 00:18:28;;;;;;;0.30;0.30;;;13.70;99.90;;;;;;4995734;28;20436;-78
2022/07/17 00:20:54;;;;;;;0.37;0.37;;;13.60;99.90;;;;;;4978281;28;20432;-78
2022/07/17 00:23:21;;;;;;;0.55;0.55;;;13.50;99.90;;;;;;4985847;28;20534;-78
2022/07/17 00:25:48;;;;;;;0.40;0.40;;;13.40;99.90;;;;;;4998606;28;20434;-78
2022/07/17 00:28:15;;;;;;;0.40;0.40;;;13.40;99.90;;;;;;4988224;28;20449;-78
2022/07/17 00:30:43;;;;;;;0.30;0.30;;;13.40;99.90;;;;;;4989479;28;20521;-78
2022/07/17 00:33:10;;;;;;;0.32;0.32;;;13.40;99.90;;;;;;4978414;28;20492;-78
2022/07/17 00:35:38;;;;;;;0.55;0.30;;;13.40;99.90;;;;;;4988414;28;20450;-78
2022/07/17 00:38:05;;;;;;;0.50;0.40;;;13.40;99.90;;;;;;4999755;28;20691;-79
2022/07/17 00:40:32;;;;;;;0.43;0.43;;;13.40;99.90;;;;;;4971532;28;20484;-78
2022/07/17 00:42:59;;;;;;;0.35;0.35;;;13.40;99.90;;;;;;4988177;28;20442;-78
2022/07/17 00:45:26;;;;;;;0.50;0.50;;;13.40;99.90;;;;;;4982503;28;20467;-78
2022/07/17 00:48:10;;;;;;;0.40;0.40;;;13.30;99.90;;;;;;4985763;28;20485;-78
2022/07/17 00:50:41;;;;;;;0.20;0.20;;;13.20;99.90;;;;;;4977491;28;20440;-78
2022/07/17 00:53:08;;;;;;;0.30;0.30;;;13.20;99.90;;;;;;4972945;28;20440;-78
2022/07/17 00:55:40;;;;;;;0.35;0.35;;;13.30;99.90;;;;;;4965968;28;20524;-78
2022/07/17 00:58:10;;;;;;;0.30;0.30;;;13.30;99.90;;;;;;4975188;28;20445;-78
2022/07/17 01:00:37;;;;;;;0.38;0.38;;;13.30;99.90;;;;;;4988902;28;20438;-78
2022/07/17 01:03:05;;;;;;;1.20;0.30;;;13.30;99.90;;;;;;4987583;28;20466;-78
2022/07/17 01:05:32;;;;;;;0.35;0.35;;;13.30;99.90;;;;;;4985686;28;20432;-78
2022/07/17 01:07:59;;;;;;;0.40;0.40;;;13.30;99.90;;;;;;4973003;28;20438;-78
2022/07/17 01:10:26;;;;;;;1.10;0.50;;;13.40;99.90;;;;;;4988032;28;20444;-78
2022/07/17 01:12:53;;;;;;;0.30;0.30;;;13.40;99.90;;;;;;4974012;28;20646;-78
2022/07/17 01:15:20;;;;;;;0.40;0.40;;;13.40;99.90;;;;;;4988751;28;20450;-78
2022/07/17 01:17:56;;;;;;;0.30;0.30;;;13.30;99.90;;;;;;4980450;28;20472;-78
2022/07/17 01:20:23;;;;;;;0.30;0.30;;;13.30;99.90;;;;;;4990054;28;20517;-78
2022/07/17 01:22:51;;;;;;;0.60;0.30;;;13.30;99.90;;;;;;4979074;28;20426;-78
2022/07/17 01:25:21;;;;;;;0.30;0.30;;;13.40;99.90;;;;;;4985991;28;20440;-78
2022/07/17 01:27:49;;;;;;;0.20;0.20;;;13.40;99.90;;;;;;4974664;28;20438;-78
2022/07/17 01:30:16;;;;;;;1.05;0.50;;;13.40;99.90;;;;;;4970286;28;20439;-78
2022/07/17 01:32:43;;;;;;;0.35;0.35;;;13.40;99.90;;;;;;4987830;28;20570;-78
2022/07/17 01:35:12;;;;;;;0.30;0.30;;;13.30;99.90;;;;;;4985790;28;21301;-78
2022/07/17 01:37:41;;;;;;;0.30;0.30;;;13.20;99.90;;;;;;4972055;28;20686;-78
2022/07/17 01:40:10;;;;;;;1.00;0.20;;;13.10;99.90;;;;;;4994173;28;20435;-78
2022/07/17 01:42:37;;;;;;;0.30;0.30;;;13.10;99.90;;;;;;4986910;28;20495;-78
2022/07/17 01:45:04;;;;;;;0.30;0.30;;;13.00;99.90;;;;;;4977232;28;20441;-78
2022/07/17 01:47:30;;;;;;;0.35;0.35;;;12.90;99.90;;;;;;4974830;28;20460;-78
2022/07/17 01:49:58;;;;;;;0.40;0.40;;;12.90;99.90;;;;;;4973051;28;20994;-78
2022/07/17 01:52:26;;;;;;;0.20;0.20;;;12.80;99.90;;;;;;4979582;28;20453;-78
2022/07/17 01:54:53;;;;;;;0.30;0.30;;;12.70;99.90;;;;;;4985584;28;20442;-78
2022/07/17 01:57:22;;;;;;;0.40;0.40;;;12.60;99.90;;;;;;4984866;28;20546;-78
2022/07/17 01:59:49;;;;;;;0.40;0.40;;;12.40;99.90;;;;;;4965684;28;20449;-78
2022/07/17 02:02:16;;;;;;;0.30;0.30;;;12.30;99.90;;;;;;4988887;28;20430;-78
2022/07/17 02:04:45;;;;;;;0.30;0.30;;;12.20;99.90;;;;;;4976394;28;20449;-77
2022/07/17 02:07:12;;;;;;;0.30;0.30;;;12.20;99.90;;;;;;4976002;28;20436;-78
2022/07/17 02:09:39;;;;;;;0.30;0.30;;;12.20;99.90;;;;;;4985795;28;20449;-79
2022/07/17 02:12:06;;;;;;;0.30;0.30;;;12.10;99.90;;;;;;4968659;28;20530;-78
2022/07/17 02:14:34;;;;;;;0.40;0.40;;;12.10;99.90;;;;;;4970653;28;20440;-78
2022/07/17 02:17:02;;;;;;;0.20;0.20;;;12.00;99.90;;;;;;4975988;28;20600;-78
2022/07/17 02:19:29;;;;;;;0.40;0.40;;;11.90;99.90;;;;;;4972462;28;20469;-78
2022/07/17 02:21:56;;;;;;;0.30;0.30;;;11.70;99.90;;;;;;4987247;28;20464;-78
2022/07/17 02:24:23;;;;;;;0.40;0.40;;;11.50;99.90;;;;;;4978094;28;20512;-78
2022/07/17 02:26:50;;;;;;;0.70;0.32;;;11.40;99.90;;;;;;4986818;28;20438;-80
2022/07/17 02:29:17;;;;;;;0.70;0.50;;;11.20;99.90;;;;;;4976301;28;20428;-79
2022/07/17 02:31:43;;;;;;;0.40;0.40;;;11.00;99.90;;;;;;4986766;28;20442;-78
2022/07/17 02:34:12;;;;;;;0.38;0.38;;;10.80;99.90;;;;;;4977894;28;20964;-78
2022/07/17 02:36:40;;;;;;;0.30;0.30;;;10.70;99.90;;;;;;4988408;28;20482;-78
2022/07/17 02:39:07;;;;;;;0.40;0.40;;;10.60;99.90;;;;;;4983183;28;20540;-78
2022/07/17 02:41:33;;;;;;;0.40;0.40;;;10.50;99.90;;;;;;4992084;28;20440;-78
2022/07/17 02:44:03;;;;;;;0.40;0.40;;;10.50;99.90;;;;;;4985267;28;20446;-77
2022/07/17 02:46:33;;;;;;;0.40;0.40;;;10.40;99.90;;;;;;4986571;28;20764;-78
2022/07/17 02:49:00;;;;;;;0.30;0.30;;;10.30;99.90;;;;;;4976460;28;20438;-78
2022/07/17 02:51:26;;;;;;;0.38;0.38;;;10.10;99.90;;;;;;4986370;28;20428;-78
2022/07/17 02:53:53;;;;;;;0.30;0.30;;;10.10;99.90;;;;;;4984689;28;20457;-78
2022/07/17 02:56:20;;;;;;;1.15;0.40;;;10.00;99.90;;;;;;4986956;28;20452;-78
2022/07/17 02:58:47;;;;;;;0.40;0.40;;;9.90;99.90;;;;;;4988796;28;20445;-78
2022/07/17 03:01:17;;;;;;;0.30;0.30;;;9.80;99.90;;;;;;4987146;28;20435;-79
2022/07/17 03:03:47;;;;;;;0.40;0.40;;;9.80;99.90;;;;;;4974398;28;20426;-78
2022/07/17 03:06:15;;;;;;;0.47;0.47;;;9.90;99.90;;;;;;4978272;28;20826;-78
2022/07/17 03:08:46;;;;;;;0.32;0.32;;;10.00;99.90;;;;;;4981955;28;20974;-78
2022/07/17 03:11:12;;;;;;;0.30;0.30;;;10.00;99.90;;;;;;4989753;28;20437;-78
2022/07/17 03:13:39;;;;;;;0.20;0.20;;;10.00;99.90;;;;;;4989033;28;20586;-78
2022/07/17 03:16:07;;;;;;;0.40;0.40;;;10.00;99.90;;;;;;4986018;28;20469;-78
2022/07/17 03:18:34;;;;;;;0.30;0.30;;;10.00;99.90;;;;;;5000904;28;20583;-78
2022/07/17 03:21:01;;;;;;;0.22;0.22;;;9.90;99.90;;;;;;4991161;28;20434;-78
2022/07/17 03:23:27;;;;;;;0.40;0.40;;;9.70;99.90;;;;;;4988263;28;20936;-78
2022/07/17 03:26:00;;;;;;;0.35;0.35;;;9.60;99.90;;;;;;4975264;28;20440;-78
2022/07/17 03:28:26;;;;;;;0.30;0.30;;;9.50;99.90;;;;;;4978000;28;20450;-78
2022/07/17 03:30:53;;;;;;;0.30;0.30;;;9.50;99.90;;;;;;4978255;28;20454;-79
2022/07/17 03:33:20;;;;;;;0.30;0.30;;;9.50;99.90;;;;;;4987977;28;20926;-78
2022/07/17 03:35:46;;;;;;;0.35;0.35;;;9.50;99.90;;;;;;4990285;28;20453;-77
2022/07/17 03:38:13;;;;;;;0.47;0.32;;;9.60;99.90;;;;;;4970040;28;20517;-78
2022/07/17 03:40:40;;;;;;;0.47;0.47;;;9.70;99.90;;;;;;4973585;28;20443;-78
2022/07/17 03:43:07;;;;;;;0.40;0.40;;;9.80;99.90;;;;;;4989679;28;20438;-80
2022/07/17 03:45:33;;;;;;;0.40;0.40;;;10.00;99.90;;;;;;4982478;28;20446;-79
2022/07/17 03:48:00;;;;;;;0.40;0.40;;;10.20;99.90;;;;;;4973433;28;20430;-79
2022/07/17 03:50:27;;;;;;;0.40;0.40;;;10.30;99.90;;;;;;4976632;28;20454;-79
2022/07/17 03:52:54;;;;;;;0.40;0.40;;;10.40;99.90;;;;;;4988372;28;20442;-79
2022/07/17 03:55:21;;;;;;;0.30;0.30;;;10.50;99.90;;;;;;4992712;28;20437;-79
2022/07/17 03:57:51;;;;;;;0.30;0.30;;;10.60;99.90;;;;;;4968537;28;20439;-78
2022/07/17 04:00:21;;;;;;;0.30;0.30;;;10.70;99.90;;;;;;4988754;28;20434;-79
2022/07/17 04:02:47;;;;;;;0.35;0.32;;;10.80;99.90;;;;;;4980714;28;20456;-79
2022/07/17 04:05:15;;;;;;;0.30;0.30;;;10.80;99.90;;;;;;4981900;28;20447;-79
2022/07/17 04:07:42;;;;;;;0.32;0.32;;;10.90;99.90;;;;;;4968450;28;20438;-79
2022/07/17 04:10:12;;;;;;;0.60;0.40;;;10.90;99.90;;;;;;4988122;28;20905;-79
2022/07/17 04:12:39;;;;;;;0.30;0.30;;;11.00;99.90;;;;;;4996533;28;20927;-79
2022/07/17 04:15:09;;;;;;;0.30;0.30;;;11.10;99.90;;;;;;4990434;28;20442;-79
2022/07/17 04:17:36;;;;;;;0.30;0.30;;;11.20;99.90;;;;;;4992951;28;20525;-79
2022/07/17 04:20:04;;;;;;;0.30;0.30;;;11.20;99.90;;;;;;4969702;28;20441;-78
2022/07/17 04:22:30;;;;;;;0.22;0.22;;;11.40;99.90;;;;;;4979319;28;20434;-79
2022/07/17 04:24:57;;;;;;;0.65;0.47;;;11.50;99.90;;;;;;4990509;28;20438;-79
2022/07/17 04:27:24;;;;;;;0.40;0.40;;;11.60;99.90;;;;;;4989685;28;20434;-79
2022/07/17 04:29:53;;;;;;;0.50;0.50;;;11.70;99.90;;;;;;4987361;28;20438;-79
2022/07/17 04:32:23;;;;;;;0.50;0.50;;;11.80;99.90;;;;;;4973057;28;20950;-79
2022/07/17 04:34:49;;;;;;;0.40;0.40;;;11.90;99.90;;;;;;4988273;28;20477;-80
2022/07/17 04:37:19;;;;;;;0.30;0.30;;;12.00;99.90;;;;;;4971476;28;20955;-79
2022/07/17 04:39:48;;;;;;;0.50;0.40;;;12.20;99.90;;;;;;4968666;28;20445;-79
2022/07/17 04:42:15;;;;;;;1.42;0.50;;;12.30;99.90;;;;;;4970493;28;20538;-79
2022/07/17 04:44:44;;;;;;;0.30;0.30;;;12.40;99.90;;;;;;4986206;28;20442;-78
2022/07/17 04:47:11;;;;;;;0.40;0.40;;;12.60;99.90;;;;;;4975673;28;20478;-77
2022/07/17 04:49:38;;;;;;;0.43;0.40;;;13.20;99.90;;;;;;4976098;28;20445;-78
2022/07/17 04:52:07;;;;;;;0.30;0.30;;;14.10;99.90;;;;;;4988126;28;20956;-78
2022/07/17 04:54:37;;;;;;;0.43;0.43;;;15.10;99.90;;;;;;4984068;28;20505;-78
2022/07/17 04:57:03;;;;;;;0.20;0.20;;;15.90;99.90;;;;;;4978064;28;20475;-78
2022/07/17 04:59:30;;;;;;;0.30;0.30;;;16.60;99.90;;;;;;4971456;28;20920;-79
2022/07/17 05:01:57;;;;;;;0.28;0.28;;;17.20;99.90;;;;;;4984999;28;20449;-80
2022/07/17 05:04:24;;;;;;;0.20;0.20;;;17.70;99.90;;;;;;4986526;28;20430;-79
2022/07/17 05:06:57;;;;;;;1.00;0.32;;;17.90;99.90;;;;;;4984500;28;20434;-80
2022/07/17 05:09:24;;;;;;;0.30;0.30;;;18.20;99.60;;;;;;4982876;28;20431;-80
2022/07/17 05:11:51;;;;;;;1.35;0.40;;;18.60;99.40;;;;;;4984603;28;20435;-80
2022/07/17 05:14:17;;;;;;;0.40;0.40;;;19.00;98.70;;;;;;4987569;28;21064;-79
2022/07/17 05:16:46;;;;;;;0.37;0.37;;;19.40;98.20;;;;;;4974275;28;20430;-80
2022/07/17 05:19:13;;;;;;;0.40;0.40;;;19.70;97.80;;;;;;4992887;28;20457;-80
2022/07/17 05:21:40;;;;;;;0.28;0.28;;;20.10;97.40;;;;;;4989851;28;20460;-80
2022/07/17 05:24:07;;;;;;;0.20;0.20;;;20.50;96.40;;;;;;4985802;28;20657;-80
2022/07/17 05:26:35;;;;;;;0.30;0.30;;;20.90;95.80;;;;;;4968794;28;20462;-80
2022/07/17 05:29:02;;;;;;;0.20;0.20;;;21.00;95.40;;;;;;4986637;28;20452;-80
2022/07/17 05:31:30;;;;;;;0.20;0.20;;;21.10;95.30;;;;;;4982235;28;20485;-80
2022/07/17 05:33:57;;;;;;;0.40;0.30;;;21.40;94.90;;;;;;4969534;28;20581;-80
2022/07/17 05:36:24;;;;;;;0.30;0.30;;;21.70;94.80;;;;;;4988060;28;20434;-81
2022/07/17 05:38:51;;;;;;;0.30;0.30;;;22.00;94.00;;;;;;4969617;28;20940;-80
2022/07/17 05:41:20;;;;;;;0.20;0.20;;;21.90;93.70;;;;;;4983607;28;20513;-79
2022/07/17 05:43:53;;;;;;;0.32;0.32;;;22.00;93.70;;;;;;4977505;28;20614;-80
2022/07/17 05:46:24;;;;;;;0.35;0.35;;;22.10;93.40;;;;;;4973691;28;20517;-79
2022/07/17 05:48:51;;;;;;;0.20;0.20;;;22.00;93.40;;;;;;4969720;28;20424;-80
2022/07/17 05:51:18;;;;;;;0.20;0.20;;;22.30;93.40;;;;;;4970809;28;20918;-80
2022/07/17 05:53:50;;;;;;;0.40;0.40;;;22.40;93.20;;;;;;4978490;28;20525;-80
2022/07/17 05:56:17;;;;;;;0.30;0.30;;;22.10;93.20;;;;;;4967416;28;20438;-80
2022/07/17 05:58:49;;;;;;;0.20;0.20;;;22.30;93.50;;;;;;4987850;28;20439;-80
2022/07/17 06:01:15;;;;;;;0.35;0.35;;;22.60;93.10;;;;;;4970731;28;20449;-80
2022/07/17 06:03:42;;;;;;;0.20;0.20;;;22.50;92.90;;;;;;4986230;28;20468;-80
2022/07/17 06:06:09;;;;;;;0.20;0.20;;;22.70;92.90;;;;;;4985828;28;20442;-80
2022/07/17 06:08:36;;;;;;;0.30;0.30;;;23.10;93.10;;;;;;4983590;28;20654;-80
2022/07/17 06:11:03;;;;;;;0.30;0.30;;;23.20;92.50;;;;;;4986600;28;20445;-81
2022/07/17 06:13:30;;;;;;;0.30;0.30;;;23.70;92.30;;;;;;4980087;28;20438;-82
2022/07/17 06:15:58;;;;;;;0.30;0.30;;;23.80;92.00;;;;;;4984743;28;20940;-80
2022/07/17 06:18:26;;;;;;;0.50;0.30;;;23.80;91.80;;;;;;4976982;28;20513;-79
2022/07/17 06:20:52;;;;;;;0.30;0.30;;;24.10;91.90;;;;;;4980840;28;20522;-80
2022/07/17 06:23:19;;;;;;;0.40;0.40;;;24.20;91.40;;;;;;4984509;28;20438;-80
2022/07/17 06:25:46;;;;;;;0.30;0.30;;;24.30;91.50;;;;;;4973215;28;20940;-80
2022/07/17 06:28:13;;;;;;;0.30;0.30;;;24.60;91.20;;;;;;4985623;28;20521;-80
2022/07/17 06:30:40;;;;;;;0.20;0.20;;;24.50;90.90;;;;;;4985661;28;20508;-80
2022/07/17 06:33:07;;;;;;;0.22;0.22;;;24.90;91.30;;;;;;4982495;28;20445;-80
2022/07/17 06:35:34;;;;;;;0.20;0.20;;;25.30;90.20;;;;;;4986516;28;20460;-80
2022/07/17 06:38:03;;;;;;;0.30;0.30;;;25.40;89.40;;;;;;4969693;28;20821;-80
2022/07/17 06:40:29;;;;;;;0.20;0.20;;;25.60;90.00;;;;;;4985064;28;20470;-80
2022/07/17 06:42:57;;;;;;;0.20;0.20;;;25.70;90.60;;;;;;4991855;28;20526;-80
2022/07/17 06:45:23;;;;;;;0.60;0.30;;;25.80;90.30;;;;;;4986342;28;20430;-81
2022/07/17 06:47:50;;;;;;;0.20;0.20;;;25.90;89.80;;;;;;4981770;28;20960;-80
2022/07/17 06:50:17;;;;;;;0.50;0.20;;;25.30;89.90;;;;;;4971607;28;20440;-80
2022/07/17 06:52:43;;;;;;;0.60;0.40;;;25.30;89.80;;;;;;4986575;28;20906;-80
2022/07/17 06:55:13;;;;;;;0.30;0.30;;;25.50;90.00;;;;;;4980073;28;20444;-80
2022/07/17 06:57:39;;;;;;;0.20;0.20;;;25.90;88.60;;;;;;4984409;28;20448;-80
2022/07/17 07:00:08;;;;;;;0.20;0.20;;;25.70;87.40;;;;;;4985604;28;20434;-80
2022/07/17 07:02:35;;;;;;;0.23;0.23;;;25.30;87.60;;;;;;4977507;28;20462;-81
2022/07/17 07:05:02;;;;;;;0.35;0.35;;;25.40;87.60;;;;;;4982615;28;20434;-81
2022/07/17 07:07:32;;;;;;;0.20;0.20;;;25.40;88.20;;;;;;4972740;28;20541;-81
2022/07/17 07:09:58;;;;;;;0.30;0.30;;;25.70;87.50;;;;;;4966592;28;20517;-81
2022/07/17 07:12:25;;;;;;;0.40;0.23;;;25.60;87.80;;;;;;4981464;28;20525;-81
2022/07/17 07:14:54;;;;;;;0.30;0.30;;;25.70;88.50;;;;;;4959649;28;20461;-81
2022/07/17 07:17:21;;;;;;;0.20;0.20;;;26.20;88.40;;;;;;4970679;28;20446;-81
2022/07/17 07:19:48;;;;;;;0.30;0.30;;;26.60;86.50;;;;;;4984718;28;20533;-79
2022/07/17 07:22:15;;;;;;;0.20;0.20;;;26.50;86.00;;;;;;4964012;28;20461;-80
2022/07/17 07:24:42;;;;;;;0.20;0.20;;;25.90;87.20;;;;;;4980592;28;20438;-80
2022/07/17 07:27:09;;;;;;;0.40;0.40;;;26.30;86.90;;;;;;4974317;28;20434;-80
2022/07/17 07:29:36;;;;;;;0.20;0.20;;;26.50;87.20;;;;;;4984203;28;20952;-80
2022/07/17 07:32:03;;;;;;;0.20;0.20;;;25.60;87.20;;;;;;4982325;28;20449;-80
2022/07/17 07:34:30;;;;;;;0.22;0.22;;;26.10;86.40;;;;;;4983307;28;20465;-79
2022/07/17 07:36:57;;;;;;;0.30;0.30;;;26.70;86.70;;;;;;4986076;28;20439;-80
2022/07/17 07:39:24;;;;;;;0.20;0.20;;;27.00;86.10;;;;;;4982990;28;20819;-80
2022/07/17 07:41:50;;;;;;;0.30;0.30;;;27.50;83.90;;;;;;4966848;28;20679;-80
2022/07/17 07:44:18;;;;;;;0.30;0.30;;;27.90;87.50;;;;;;4986624;28;20434;-80
2022/07/17 07:46:56;;;;;;;0.25;0.25;;;28.30;85.30;;;;;;4978988;28;20435;-80
2022/07/17 07:49:23;;;;;;;0.20;0.20;;;28.30;82.70;;;;;;4986799;28;20477;-80
2022/07/17 07:51:50;;;;;;;0.30;0.30;;;28.00;83.00;;;;;;4990309;28;20437;-83
2022/07/17 07:54:29;;;;;;;0.20;0.20;;;27.60;83.90;;;;;;4987838;28;20441;-81
2022/07/17 07:56:56;;;;;;;0.20;0.20;;;27.50;84.80;;;;;;4985643;28;20438;-81
2022/07/17 07:59:28;;;;;;;0.20;0.20;;;27.80;83.20;;;;;;4972648;28;22292;-83
2022/07/17 08:01:56;;;;;;;0.20;0.20;;;28.00;83.00;;;;;;4995613;28;20960;-81
2022/07/17 08:04:26;;;;;;;0.20;0.20;;;27.10;83.20;;;;;;4970361;28;20446;-81
2022/07/17 08:06:53;;;;;;;0.20;0.20;;;27.60;84.60;;;;;;4989800;28;20873;-83
2022/07/17 08:09:20;;;;;;;0.40;0.40;;;28.10;83.00;;;;;;4988476;28;20513;-83
2022/07/17 08:11:47;;;;;;;0.30;0.30;;;28.80;83.60;;;;;;4971624;28;20441;-83
2022/07/17 08:14:13;;;;;;;0.20;0.20;;;28.60;81.60;;;;;;4983608;28;20516;-83
2022/07/17 08:16:45;;;;;;;0.30;0.30;;;28.50;83.30;;;;;;4986927;28;20786;-83
2022/07/17 08:19:16;;;;;;;0.22;0.22;;;28.80;82.80;;;;;;4989063;28;20447;-83
2022/07/17 08:21:43;;;;;;;0.30;0.30;;;29.00;82.50;;;;;;4989713;28;20475;-83
2022/07/17 08:24:09;;;;;;;0.30;0.30;;;29.10;81.20;;;;;;4979646;28;20434;-82
2022/07/17 08:26:39;;;;;;;0.20;0.20;;;29.20;79.90;;;;;;4990778;28;20457;-82
2022/07/17 08:29:05;;;;;;;0.20;0.20;;;28.40;82.10;;;;;;4988876;28;20525;-81
2022/07/17 08:31:32;;;;;;;0.25;0.25;;;28.80;81.20;;;;;;4992783;28;20435;-83
2022/07/17 08:34:00;;;;;;;0.30;0.30;;;28.70;81.10;;;;;;4995518;28;20438;-82
2022/07/17 08:36:28;;;;;;;0.20;0.20;;;28.70;79.80;;;;;;4990549;28;20790;-83
2022/07/17 08:38:55;;;;;;;0.30;0.30;;;27.10;80.70;;;;;;4984280;28;20461;-82
2022/07/17 08:41:22;;;;;;;0.20;0.20;;;27.20;81.70;;;;;;4992384;28;20525;-83
2022/07/17 08:43:50;;;;;;;0.30;0.30;;;27.70;80.80;;;;;;4985437;28;20467;-83
2022/07/17 08:46:18;;;;;;;0.30;0.30;;;27.30;80.40;;;;;;4971734;28;20849;-83
2022/07/17 08:48:46;;;;;;;0.30;0.30;;;27.30;79.70;;;;;;4989432;28;20928;-82
2022/07/17 08:51:17;;;;;;;0.40;0.20;;;27.50;79.90;;;;;;4988596;28;20438;-82
2022/07/17 08:53:44;;;;;;;0.20;0.20;;;28.00;80.90;;;;;;4988568;28;20472;-83
2022/07/17 08:56:16;;;;;;;0.50;0.20;;;28.40;80.30;;;;;;4989382;28;20465;-83
2022/07/17 08:58:43;;;;;;;0.30;0.30;;;28.70;79.10;;;;;;4987733;28;20422;-83
2022/07/17 09:01:10;;;;;;;0.40;0.40;;;28.80;78.50;;;;;;4988086;28;20430;-82
2022/07/17 09:03:41;;;;;;;0.35;0.35;;;29.60;77.90;;;;;;4988123;28;20430;-84
2022/07/17 09:06:20;;;;;;;0.30;0.30;;;29.70;77.50;;;;;;4989309;28;20888;-83
2022/07/17 09:08:47;;;;;;;0.30;0.30;;;29.70;77.20;;;;;;4975500;28;20452;-82
2022/07/17 09:11:14;;;;;;;0.20;0.20;;;29.80;76.50;;;;;;4987502;28;20804;-82
2022/07/17 09:13:46;;;;;;;0.20;0.20;;;29.50;77.80;;;;;;4981683;28;20438;-83
2022/07/17 09:16:13;;;;;;;0.30;0.30;;;29.70;79.40;;;;;;4987951;28;20485;-83
2022/07/17 09:18:49;;;;;;;0.20;0.20;;;29.60;78.30;;;;;;4990758;28;20517;-83
2022/07/17 09:21:24;;;;;;;0.50;0.50;;;29.90;77.70;;;;;;4988274;28;20434;-82
2022/07/17 09:24:02;;;;;;;0.30;0.30;;;30.20;76.90;;;;;;4982347;28;20438;-82
2022/07/17 09:26:29;;;;;;;0.20;0.20;;;30.50;76.10;;;;;;4970309;28;20931;-82
2022/07/17 09:28:57;;;;;;;0.30;0.30;;;30.00;76.60;;;;;;4988277;28;20438;-83
2022/07/17 09:31:25;;;;;;;1.00;0.40;;;29.60;76.50;;;;;;4987941;28;20435;-83
2022/07/17 09:33:53;;;;;;;0.22;0.22;;;29.70;76.70;;;;;;4966751;28;20457;-82
2022/07/17 09:36:22;;;;;;;0.20;0.20;;;29.20;76.80;;;;;;4987892;28;20440;-82
2022/07/17 09:38:53;;;;;;;0.28;0.28;;;29.00;76.30;;;;;;4997701;28;20452;-82
2022/07/17 09:41:22;;;;;;;0.35;0.35;;;28.90;76.60;;;;;;4980833;28;20434;-84
2022/07/17 09:43:58;;;;;;;0.30;0.30;;;28.50;77.20;;;;;;4971089;28;20442;-82
2022/07/17 09:46:28;;;;;;;0.25;0.25;;;28.80;77.20;;;;;;4984084;28;20434;-82
2022/07/17 09:48:59;;;;;;;0.30;0.30;;;28.70;77.00;;;;;;4969663;28;20514;-82
2022/07/17 09:51:34;;;;;;;0.70;0.30;;;29.10;77.90;;;;;;4975915;28;20449;-82
2022/07/17 09:54:03;;;;;;;0.28;0.28;;;29.30;75.40;;;;;;4979140;28;20663;-82
2022/07/17 09:56:33;;;;;;;0.30;0.30;;;29.50;76.70;;;;;;4990382;28;20464;-82
2022/07/17 09:59:08;;;;;;;0.30;0.30;;;29.70;76.80;;;;;;4983710;28;20438;-81
2022/07/17 10:01:36;;;;;;;0.30;0.30;;;29.60;75.40;;;;;;4985909;28;20452;-82
2022/07/17 10:04:04;;;;;;;0.27;0.27;;;29.80;75.00;;;;;;4988137;28;20450;-81
2022/07/17 10:06:31;;;;;;;0.30;0.30;;;29.60;74.80;;;;;;4984682;28;20434;-82
2022/07/17 10:08:59;;;;;;;0.30;0.30;;;29.30;75.20;;;;;;4969350;28;20549;-82
2022/07/17 10:11:30;;;;;;;0.20;0.20;;;29.40;75.00;;;;;;4984279;28;21003;-82
2022/07/17 10:14:05;;;;;;;0.30;0.30;;;29.60;77.90;;;;;;4986342;28;20530;-82
2022/07/17 10:16:35;;;;;;;0.30;0.30;;;30.10;76.60;;;;;;4984934;28;20804;-81
2022/07/17 10:19:02;;;;;;;0.30;0.30;;;30.30;76.90;;;;;;4985337;28;20438;-82
2022/07/17 10:21:31;;;;;;;0.25;0.25;;;30.20;75.00;;;;;;4986621;28;20474;-81
2022/07/17 10:23:58;;;;;;;0.30;0.30;;;30.00;74.50;;;;;;4981065;28;20447;-82
2022/07/17 10:26:43;;;;;;;0.30;0.30;;;30.20;74.80;;;;;;4986072;28;20438;-82
2022/07/17 10:29:33;;;;;;;0.30;0.30;;;29.90;74.70;;;;;;4969511;28;20442;-81
2022/07/17 10:32:05;;;;;;;0.20;0.20;;;28.90;74.90;;;;;;4985863;28;20441;-81
2022/07/17 10:34:42;;;;;;;0.30;0.30;;;29.20;75.00;;;;;;4978532;28;20515;-82
2022/07/17 10:37:22;;;;;;;0.20;0.20;;;29.60;75.10;;;;;;4971382;28;20453;-81
2022/07/17 10:39:58;;;;;;;0.40;0.20;;;29.80;73.60;;;;;;4976832;28;20452;-83
2022/07/17 10:42:46;;;;;;;0.20;0.20;;;29.70;73.70;;;;;;4983607;28;20537;-82
2022/07/17 10:45:16;;;;;;;0.80;0.40;;;29.80;74.50;;;;;;4981871;28;20529;-79
2022/07/17 10:47:47;;;;;;;0.20;0.20;;;29.90;72.80;;;;;;4975954;28;20469;-80
2022/07/17 10:50:16;;;;;;;0.20;0.20;;;30.20;72.10;;;;;;4985702;28;20463;-81
2022/07/17 10:52:43;;;;;;;0.25;0.25;;;30.50;72.30;;;;;;4986209;28;20436;-81
2022/07/17 10:55:21;;;;;;;0.20;0.20;;;30.70;70.60;;;;;;4986041;28;20517;-81
2022/07/17 10:57:50;;;;;;;0.20;0.20;;;30.70;71.30;;;;;;4980883;28;20469;-80
2022/07/17 11:00:17;;;;;;;0.20;0.20;;;30.60;70.40;;;;;;4988639;28;20963;-81
2022/07/17 11:02:44;;;;;;;0.20;0.20;;;30.70;70.20;;;;;;4984379;28;20549;-81
2022/07/17 11:05:13;;;;;;;0.30;0.30;;;30.70;69.70;;;;;;4982922;28;20458;-81
2022/07/17 11:07:58;;;;;;;0.30;0.30;;;30.70;71.30;;;;;;4987527;28;20446;-81
2022/07/17 11:10:28;;;;;;;0.30;0.30;;;30.90;70.30;;;;;;4989252;28;20442;-81
2022/07/17 11:13:14;;;;;;;0.40;0.40;;;30.90;69.60;;;;;;4975038;28;20426;-81
2022/07/17 11:15:47;;;;;;;0.30;0.30;;;30.90;70.00;;;;;;4987359;28;20893;-80
2022/07/17 11:18:20;;;;;;;0.20;0.20;;;31.20;69.90;;;;;;4990033;28;20445;-81
2022/07/17 11:20:49;;;;;;;0.20;0.20;;;31.20;69.20;;;;;;4995284;28;20797;-80
2022/07/17 11:23:16;;;;;;;0.30;0.30;;;31.30;69.40;;;;;;4987398;28;20454;-80
2022/07/17 11:26:14;;;;;;;0.20;0.20;;;30.90;70.10;;;;;;4992585;28;20469;-82
2022/07/17 11:28:44;;;;;;;0.30;0.20;;;30.90;68.90;;;;;;4914028;29;20460;-81
2022/07/17 11:31:19;;;;;;;0.30;0.30;;;30.40;68.60;;;;;;4919557;29;20445;-81
2022/07/17 11:33:54;;;;;;;0.20;0.20;;;30.40;69.40;;;;;;4928366;29;21227;-80
2022/07/17 11:36:33;;;;;;;0.20;0.20;;;30.60;70.60;;;;;;4908379;29;20470;-81
2022/07/17 11:39:10;;;;;;;0.30;0.30;;;30.90;71.50;;;;;;4927746;29;20431;-81
2022/07/17 11:41:49;;;;;;;0.20;0.20;;;30.80;69.80;;;;;;4913572;29;20524;-80
2022/07/17 11:44:17;;;;;;;0.30;0.30;;;30.70;70.10;;;;;;4929854;29;20445;-82
2022/07/17 11:46:49;;;;;;;0.30;0.30;;;30.30;69.70;;;;;;4918067;29;20447;-81
2022/07/17 11:49:28;;;;;;;0.20;0.20;;;30.50;70.20;;;;;;4931537;29;20440;-80
2022/07/17 11:51:57;;;;;;;0.30;0.30;;;30.50;69.60;;;;;;4928530;29;20443;-80
2022/07/17 11:54:26;;;;;;;0.20;0.20;;;30.10;69.70;;;;;;4924915;29;20601;-80
2022/07/17 11:57:01;;;;;;;0.20;0.20;;;30.00;68.80;;;;;;4926995;29;20525;-80
2022/07/17 11:59:31;;;;;;;0.30;0.30;;;29.30;70.00;;;;;;4927933;29;20563;-79
2022/07/17 12:02:11;;;;;;;0.30;0.30;;;29.30;70.90;;;;;;4918584;29;20614;-79
2022/07/17 12:04:58;;;;;;;0.22;0.22;;;29.90;68.90;;;;;;4940713;28;20439;-81
2022/07/17 12:07:38;;;;;;;0.30;0.30;;;30.20;66.40;;;;;;4990614;28;20473;-79
2022/07/17 12:10:24;;;;;;;0.20;0.20;;;30.20;66.30;;;;;;4968220;28;20472;-81
2022/07/17 12:13:06;;;;;;;0.25;0.25;;;30.40;67.40;;;;;;4988156;28;20991;-79
2022/07/17 12:15:40;;;;;;;0.20;0.20;;;30.70;66.60;;;;;;4988440;28;20537;-79
2022/07/17 12:18:26;;;;;;;0.30;0.30;;;30.70;67.50;;;;;;4971675;28;20556;-80
2022/07/17 12:20:57;;;;;;;1.10;0.30;;;31.20;66.80;;;;;;4959804;28;21211;-81
2022/07/17 12:23:33;;;;;;;0.30;0.30;;;31.50;66.90;;;;;;4963923;28;20832;-81
2022/07/17 12:26:08;;;;;;;2.95;2.67;;;31.00;65.30;;;;;;4985147;28;20533;-80
2022/07/17 12:28:36;;;;;;;0.20;0.20;;;30.10;66.20;;;;;;4986979;28;20505;-80
2022/07/17 12:31:03;;;;;;;0.30;0.30;;;29.90;65.70;;;;;;4990457;28;20939;-79
2022/07/17 12:33:30;;;;;;;0.20;0.20;;;29.80;65.20;;;;;;4989061;28;20430;-80
2022/07/17 12:35:57;;;;;;;0.30;0.30;;;29.60;66.00;;;;;;4993758;28;20525;-79
2022/07/17 12:38:24;;;;;;;0.65;0.65;;;29.50;66.40;;;;;;4996169;28;20942;-81
2022/07/17 12:40:51;;;;;;;0.20;0.20;;;29.50;67.60;;;;;;4985777;28;26002;-79
2022/07/17 12:43:19;;;;;;;0.30;0.30;;;29.80;65.50;;;;;;4985291;28;20529;-80
2022/07/17 12:45:48;;;;;;;1.55;1.45;;;29.90;64.30;;;;;;4981994;28;20493;-80
2022/07/17 12:48:14;;;;;;;0.30;0.30;;;29.50;66.00;;;;;;4986102;28;20445;-80
2022/07/17 12:50:44;;;;;;;0.30;0.30;;;29.70;64.20;;;;;;4969461;28;20439;-80
2022/07/17 12:53:11;;;;;;;0.70;0.30;;;30.00;64.90;;;;;;4993069;28;20441;-80
2022/07/17 12:55:38;;;;;;;0.20;0.20;;;30.30;65.30;;;;;;4988935;28;21170;-80
2022/07/17 12:58:05;;;;;;;0.30;0.30;;;30.30;65.60;;;;;;4985939;28;20450;-80